Time;durP1;ratioP1;P1;durP2;ratioP2;P2;SDS_P1;SDS_P2;PMS_P1;PMS_P2;Temp;Humidity;BMP_temperature;BMP_pressure;BME280_temperature;BME280_humidity;BME280_pressure;Samples;Min_cycle;Max_cycle;Signal;HPM_P1;HPM_P2
2022/12/04 00:01:09;;;;;;;83.88;29.30;;;-0.20;99.90;;;-2.17;100.00;101228.88;5019996;28;20037;-77
2022/12/04 00:03:35;;;;;;;81.55;29.70;;;-0.30;99.90;;;-2.21;100.00;101219.38;5025856;28;20598;-79
2022/12/04 00:06:13;;;;;;;93.38;28.95;;;-0.30;99.90;;;-2.15;100.00;101225.22;5026899;28;20033;-80
2022/12/04 00:08:40;;;;;;;93.68;29.42;;;-0.30;99.90;;;-2.17;100.00;101218.19;5022215;28;20043;-81
2022/12/04 00:11:08;;;;;;;87.32;30.50;;;-0.30;99.90;;;-2.18;100.00;101210.28;5027284;28;20147;-82
2022/12/04 00:13:34;;;;;;;85.03;29.17;;;-0.30;99.90;;;-2.20;100.00;101217.59;5023223;28;20499;-80
2022/12/04 00:16:03;;;;;;;85.13;31.00;;;-0.30;99.90;;;-2.20;100.00;101210.41;5023276;28;20037;-79
2022/12/04 00:18:29;;;;;;;80.45;27.65;;;-0.30;99.90;;;-2.21;100.00;101200.69;5026249;28;20258;-79
2022/12/04 00:20:54;;;;;;;88.88;29.38;;;-0.30;99.90;;;-2.23;100.00;101207.97;5019366;28;20106;-79
2022/12/04 00:23:20;;;;;;;84.03;27.75;;;-0.30;99.90;;;-2.20;100.00;101215.75;5026495;28;20038;-81
2022/12/04 00:25:47;;;;;;;86.10;29.40;;;-0.30;99.90;;;-2.20;100.00;101215.75;5026649;28;20033;-80
2022/12/04 00:28:15;;;;;;;93.25;29.80;;;-0.30;99.90;;;-2.22;100.00;101211.50;5026107;28;20087;-80
2022/12/04 00:30:43;;;;;;;86.75;28.65;;;-0.30;99.90;;;-2.22;100.00;101209.66;5025940;28;20025;-80
2022/12/04 00:33:11;;;;;;;86.18;29.42;;;-0.30;99.90;;;-2.17;100.00;101207.47;5025583;28;20090;-80
2022/12/04 00:35:36;;;;;;;90.80;29.58;;;-0.30;99.90;;;-2.21;100.00;101211.38;5025541;28;20072;-79
2022/12/04 00:38:02;;;;;;;98.90;29.92;;;-0.30;99.90;;;-2.13;100.00;101212.59;5022156;28;20033;-79
2022/12/04 00:40:28;;;;;;;88.15;29.55;;;-0.30;99.90;;;-2.14;100.00;101210.88;5024359;28;20044;-80
2022/12/04 00:42:54;;;;;;;87.45;28.17;;;-0.20;99.90;;;-2.13;100.00;101212.59;5025575;28;20037;-79
2022/12/04 00:45:19;;;;;;;86.97;29.55;;;-0.20;99.90;;;-2.14;100.00;101200.19;5025930;28;20131;-80
2022/12/04 00:47:45;;;;;;;91.78;29.05;;;-0.30;99.90;;;-2.18;100.00;101195.09;5029498;28;20021;-79
2022/12/04 00:50:11;;;;;;;95.93;30.00;;;-0.30;99.90;;;-2.17;100.00;101206.66;5028933;28;20030;-79
2022/12/04 00:52:37;;;;;;;92.55;28.00;;;-0.30;99.90;;;-2.17;100.00;101201.28;5030187;28;20030;-80
2022/12/04 00:55:03;;;;;;;94.03;29.73;;;-0.30;99.90;;;-2.14;100.00;101201.06;5030880;28;20030;-80
2022/12/04 00:57:29;;;;;;;86.13;28.08;;;-0.20;99.90;;;-2.12;100.00;101200.91;5030493;28;21320;-80
2022/12/04 00:59:55;;;;;;;98.25;30.35;;;-0.20;99.90;;;-2.18;100.00;101200.44;5028927;28;20480;-79
2022/12/04 01:02:21;;;;;;;92.68;31.23;;;-0.20;99.90;;;-2.19;100.00;101198.72;5022837;28;20034;-79
2022/12/04 01:04:46;;;;;;;94.28;29.10;;;-0.30;99.90;;;-2.15;100.00;101198.47;5027736;28;20377;-79
2022/12/04 01:07:12;;;;;;;101.68;30.73;;;-0.20;99.90;;;-2.12;100.00;101207.13;5030172;28;20033;-78
2022/12/04 01:09:38;;;;;;;91.65;29.38;;;-0.20;99.90;;;-2.12;100.00;101198.25;5029246;28;20022;-78
2022/12/04 01:12:04;;;;;;;83.93;27.00;;;-0.20;99.90;;;-2.10;100.00;101205.19;5029461;28;20025;-79
2022/12/04 01:14:30;;;;;;;91.78;29.98;;;-0.20;99.90;;;-2.11;100.00;101202.66;5029948;28;20033;-78
2022/12/04 01:16:55;;;;;;;88.97;27.88;;;-0.20;99.90;;;-2.10;100.00;101193.66;5028344;28;20046;-79
2022/12/04 01:19:21;;;;;;;92.18;28.88;;;-0.20;99.90;;;-2.09;100.00;101195.34;5027960;28;20036;-80
2022/12/04 01:21:47;;;;;;;89.68;27.85;;;-0.20;99.90;;;-2.15;100.00;101191.34;5028452;28;20033;-79
2022/12/04 01:24:13;;;;;;;91.13;27.52;;;-0.30;99.90;;;-2.11;100.00;101189.28;5029538;28;20046;-79
2022/12/04 01:26:39;;;;;;;77.60;26.55;;;-0.20;99.90;;;-2.14;100.00;101190.34;5029001;28;20030;-79
2022/12/04 01:29:05;;;;;;;92.53;28.02;;;-0.30;99.90;;;-2.10;100.00;101185.63;5028628;28;20456;-79
2022/12/04 01:31:31;;;;;;;87.90;27.15;;;-0.20;99.90;;;-2.09;100.00;101187.34;5029295;28;20037;-79
2022/12/04 01:33:56;;;;;;;93.70;26.42;;;-0.20;99.90;;;-2.14;100.00;101189.50;5028736;28;20026;-79
2022/12/04 01:36:26;;;;;;;81.72;28.58;;;-0.30;99.90;;;-2.17;100.00;101170.03;5029771;28;20051;-78
2022/12/04 01:38:53;;;;;;;79.20;27.63;;;-0.30;99.90;;;-2.11;100.00;101186.59;5029101;28;20032;-79
2022/12/04 01:41:25;;;;;;;86.93;27.52;;;-0.30;99.90;;;-2.12;100.00;101180.38;5028473;28;20040;-79
2022/12/04 01:44:10;;;;;;;78.38;26.65;;;-0.30;99.90;;;-2.09;100.00;101179.31;5026402;28;20041;-80
2022/12/04 01:46:38;;;;;;;82.93;27.17;;;-0.20;99.90;;;-2.07;100.00;101180.88;5024240;28;20045;-80
2022/12/04 01:49:07;;;;;;;83.32;26.52;;;-0.20;99.90;;;-2.09;100.00;101169.44;5029000;28;20084;-80
2022/12/04 01:51:39;;;;;;;81.10;26.73;;;-0.20;99.90;;;-2.05;100.00;101173.56;5029192;28;20495;-80
2022/12/04 01:54:21;;;;;;;78.30;26.08;;;-0.20;99.90;;;-2.08;100.00;101165.81;5028867;28;20033;-80
2022/12/04 01:57:00;;;;;;;86.93;26.77;;;-0.20;99.90;;;-2.12;100.00;101167.03;5024562;28;20053;-79
2022/12/04 01:59:32;;;;;;;82.10;26.23;;;-0.20;99.90;;;-2.07;100.00;101177.38;5028221;28;20372;-80
2022/12/04 02:02:17;;;;;;;84.82;27.42;;;-0.20;99.90;;;-2.07;100.00;101174.69;5028621;28;20041;-80
2022/12/04 02:04:43;;;;;;;84.60;27.15;;;-0.20;99.90;;;-2.06;100.00;101179.06;5025950;28;20033;-80
2022/12/04 02:07:10;;;;;;;79.82;27.42;;;-0.20;99.90;;;-2.07;100.00;101174.69;5027696;28;20375;-80
2022/12/04 02:09:40;;;;;;;81.80;26.15;;;-0.20;99.90;;;-2.12;100.00;101166.16;5027039;28;20044;-79
2022/12/04 02:12:31;;;;;;;90.60;27.58;;;-0.20;99.90;;;-2.09;100.00;101171.28;5024545;28;20029;-79
2022/12/04 02:15:20;;;;;;;84.90;26.80;;;-0.20;99.90;;;-2.10;100.00;101167.75;5028532;28;20120;-80
2022/12/04 02:17:52;;;;;;;83.47;28.02;;;-0.30;99.90;;;-2.09;100.00;101165.94;5026759;28;20033;-80
2022/12/04 02:20:32;;;;;;;81.00;25.25;;;-0.20;99.90;;;-2.11;100.00;101165.22;5028190;28;20446;-80
2022/12/04 02:23:33;;;;;;;83.70;25.80;;;-0.20;99.90;;;-2.08;100.00;101167.66;5022804;28;20029;-80
2022/12/04 02:26:29;;;;;;;81.28;25.90;;;-0.20;99.90;;;-2.11;100.00;101162.53;5031271;28;20034;-78
2022/12/04 02:29:29;;;;;;;87.75;25.40;;;-0.20;99.90;;;-2.08;100.00;101157.78;5026799;28;20070;-80
2022/12/04 02:32:25;;;;;;;78.32;25.15;;;-0.20;99.90;;;-2.06;100.00;101157.69;5023264;28;20068;-79
2022/12/04 02:35:13;;;;;;;73.50;26.75;;;-0.20;99.90;;;-2.07;100.00;101153.31;5032189;28;20124;-79
2022/12/04 02:37:48;;;;;;;79.32;25.02;;;-0.20;99.90;;;-2.10;100.00;101150.88;5026935;28;20033;-79
2022/12/04 02:40:41;;;;;;;80.28;25.02;;;-0.20;99.90;;;-2.05;100.00;101151.34;5030873;28;20037;-79
2022/12/04 02:43:22;;;;;;;76.25;25.88;;;-0.20;99.90;;;-2.08;100.00;101143.56;5027799;28;20049;-79
2022/12/04 02:46:05;;;;;;;73.45;24.20;;;-0.20;99.90;;;-2.07;100.00;101147.94;5027376;28;20030;-80
2022/12/04 02:48:39;;;;;;;79.05;26.05;;;-0.20;99.90;;;-2.08;100.00;101141.75;5022340;28;20432;-79
2022/12/04 02:51:11;;;;;;;77.45;25.98;;;-0.20;99.90;;;-2.12;100.00;101145.63;5032505;28;20036;-80
2022/12/04 02:53:44;;;;;;;72.15;23.95;;;-0.20;99.90;;;-2.09;100.00;101144.56;5032899;28;20037;-80
2022/12/04 02:56:16;;;;;;;69.53;23.58;;;-0.20;99.90;;;-2.09;100.00;101141.88;5029984;28;20033;-80
2022/12/04 02:59:11;;;;;;;75.20;23.40;;;-0.20;99.90;;;-2.13;100.00;101130.56;5029551;28;20029;-80
2022/12/04 03:01:45;;;;;;;68.38;23.33;;;-0.20;99.90;;;-2.04;100.00;101145.03;5029810;28;20041;-79
2022/12/04 03:04:26;;;;;;;70.22;23.77;;;-0.20;99.90;;;-2.00;100.00;101146.47;5025444;28;20037;-79
2022/12/04 03:07:01;;;;;;;75.05;24.98;;;-0.20;99.90;;;-2.00;100.00;101146.47;5032811;28;20047;-80
2022/12/04 03:09:44;;;;;;;79.90;27.48;;;-0.10;99.90;;;-2.02;100.00;101149.25;5024622;28;20048;-79
2022/12/04 03:12:28;;;;;;;74.10;26.15;;;-0.10;99.90;;;-2.02;100.00;101146.59;5027540;28;20121;-80
2022/12/04 03:15:02;;;;;;;72.93;24.95;;;-0.10;99.90;;;-1.99;100.00;101145.50;5025970;28;20064;-79
2022/12/04 03:17:54;;;;;;;70.30;25.02;;;-0.10;99.90;;;-2.00;100.00;101141.13;5023015;28;20030;-79
2022/12/04 03:20:22;;;;;;;75.88;25.88;;;-0.10;99.90;;;-1.98;100.00;101146.38;5018851;28;20036;-81
2022/12/04 03:22:58;;;;;;;79.07;28.38;;;-0.10;99.90;;;-2.09;100.00;101128.50;5034678;28;20080;-79
2022/12/04 03:25:34;;;;;;;74.90;25.35;;;-0.10;99.90;;;-2.10;100.00;101129.47;5020652;28;20034;-79
2022/12/04 03:28:10;;;;;;;77.60;26.70;;;-0.10;99.90;;;-1.99;100.00;101148.19;5025906;28;20041;-79
2022/12/04 03:30:47;;;;;;;71.93;24.95;;;-0.10;99.90;;;-1.97;100.00;101142.72;5025403;28;20108;-79
2022/12/04 03:33:25;;;;;;;82.38;26.85;;;-0.10;99.90;;;-1.94;100.00;101148.66;5023026;28;20199;-79
2022/12/04 03:36:06;;;;;;;78.63;27.08;;;-0.10;99.90;;;-1.90;100.00;101142.09;5027708;28;20047;-79
2022/12/04 03:38:58;;;;;;;77.22;26.42;;;0.00;99.90;;;-1.96;100.00;101133.72;5028828;28;20029;-79
2022/12/04 03:42:00;;;;;;;81.03;26.60;;;-0.10;99.90;;;-1.91;100.00;101129.69;5029543;28;20037;-79
2022/12/04 03:44:37;;;;;;;76.68;26.52;;;0.00;99.90;;;-1.91;100.00;101127.00;5028549;28;20041;-79
2022/12/04 03:47:32;;;;;;;85.18;28.75;;;0.00;99.90;;;-1.95;100.00;101124.72;5030607;28;20047;-79
2022/12/04 03:50:18;;;;;;;78.20;26.55;;;0.00;99.90;;;-1.89;100.00;101121.56;5022382;28;20018;-79
2022/12/04 03:53:06;;;;;;;75.55;26.88;;;0.00;99.90;;;-1.90;100.00;101122.53;5025867;28;20461;-80
2022/12/04 03:56:00;;;;;;;76.18;28.48;;;-0.10;99.90;;;-1.92;100.00;101119.13;5022190;28;20341;-80
2022/12/04 03:58:32;;;;;;;86.55;27.25;;;0.00;99.90;;;-1.92;100.00;101124.47;5022811;28;20109;-79
2022/12/04 04:01:02;;;;;;;79.78;27.33;;;0.00;99.90;;;-1.87;100.00;101127.63;5024771;28;20026;-79
2022/12/04 04:03:34;;;;;;;79.18;28.15;;;0.00;99.90;;;-1.84;100.00;101138.06;5025987;28;20025;-80
2022/12/04 04:06:19;;;;;;;79.55;29.17;;;0.00;99.90;;;-1.84;100.00;101137.25;5029910;28;20033;-79
2022/12/04 04:08:51;;;;;;;79.75;28.85;;;0.00;99.90;;;-1.82;100.00;101136.13;5026659;28;20029;-79
2022/12/04 04:11:45;;;;;;;81.72;29.75;;;0.00;99.90;;;-1.88;100.00;101125.94;5027628;28;20021;-79
2022/12/04 04:25:43;;;;;;;82.03;28.83;;;0.10;99.90;;;-1.77;100.00;101127.75;5025373;28;20119;-79
2022/12/04 04:28:41;;;;;;;86.32;30.90;;;0.10;99.90;;;-1.74;100.00;101135.50;5020398;28;20036;-80
2022/12/04 04:31:41;;;;;;;80.65;28.25;;;0.10;99.90;;;-1.73;100.00;101139.88;5027089;28;20041;-79
2022/12/04 04:34:07;;;;;;;77.88;29.80;;;0.10;99.90;;;-1.73;100.00;101140.72;5021589;28;20038;-79
2022/12/04 04:37:08;;;;;;;91.32;30.20;;;0.10;99.90;;;-1.75;100.00;101136.50;5027524;28;20495;-79
2022/12/04 04:39:55;;;;;;;81.35;29.45;;;0.10;99.90;;;-1.81;100.00;101118.25;5027039;28;20041;-79
2022/12/04 04:42:39;;;;;;;85.88;30.88;;;0.10;99.90;;;-1.74;100.00;101136.34;5025034;28;20041;-79
2022/12/04 04:45:24;;;;;;;83.10;29.33;;;0.10;99.90;;;-1.72;100.00;101138.91;5027477;28;20052;-79
2022/12/04 04:48:01;;;;;;;82.05;29.33;;;0.10;99.90;;;-1.80;100.00;101123.47;5024298;28;20171;-79
2022/12/04 04:50:28;;;;;;;86.80;30.00;;;0.20;99.90;;;-1.74;100.00;101138.19;5022148;28;20025;-80
2022/12/04 04:53:02;;;;;;;88.13;30.80;;;0.20;99.90;;;-1.73;100.00;101145.25;5020809;28;20162;-78
2022/12/04 04:55:33;;;;;;;89.57;32.03;;;0.10;99.90;;;-1.77;100.00;101120.53;5026528;28;20092;-77
2022/12/04 04:58:18;;;;;;;81.70;28.90;;;0.20;99.90;;;-1.69;100.00;101130.63;5021737;28;20255;-78
2022/12/04 05:01:00;;;;;;;88.43;30.50;;;0.20;99.90;;;-1.68;100.00;101131.50;5022820;28;20045;-78
2022/12/04 05:03:27;;;;;;;88.57;30.42;;;0.20;99.90;;;-1.66;100.00;101134.91;5035987;28;20040;-79
2022/12/04 05:05:53;;;;;;;82.75;30.25;;;0.20;99.90;;;-1.68;100.00;101131.50;5029027;28;20049;-79
2022/12/04 05:08:19;;;;;;;84.82;31.02;;;0.20;99.90;;;-1.68;100.00;101128.81;5030653;28;20057;-79
2022/12/04 05:10:45;;;;;;;81.57;30.35;;;0.20;99.90;;;-1.64;100.00;101132.94;5021398;28;20025;-78
2022/12/04 05:13:13;;;;;;;83.00;30.30;;;0.20;99.90;;;-1.63;100.00;101134.66;5025760;28;20168;-79
2022/12/04 05:15:39;;;;;;;81.50;30.42;;;0.20;99.90;;;-1.62;100.00;101136.34;5028907;28;20042;-79
2022/12/04 05:18:04;;;;;;;80.80;30.00;;;0.20;99.90;;;-1.62;100.00;101147.88;5027963;28;20074;-78
2022/12/04 05:20:31;;;;;;;78.90;29.77;;;0.20;99.90;;;-1.61;100.00;101148.75;5027130;28;20045;-78
2022/12/04 05:22:57;;;;;;;86.15;31.17;;;0.20;99.90;;;-1.64;100.00;101147.16;5025169;28;20192;-77
2022/12/04 05:25:23;;;;;;;80.60;30.58;;;0.20;99.90;;;-1.57;100.00;101152.03;5025477;28;20463;-79
2022/12/04 05:27:48;;;;;;;76.68;29.05;;;0.30;99.90;;;-1.60;100.00;101148.59;5030129;28;20116;-76
2022/12/04 05:30:15;;;;;;;75.50;29.88;;;0.30;99.90;;;-1.59;100.00;101152.16;5029108;28;20022;-77
2022/12/04 05:32:41;;;;;;;75.97;31.05;;;0.30;99.90;;;-1.58;100.00;101145.81;5028063;28;20041;-77
2022/12/04 05:35:07;;;;;;;85.50;29.83;;;0.30;99.90;;;-1.58;100.00;101155.69;5029657;28;20455;-78
2022/12/04 05:37:37;;;;;;;77.28;29.48;;;0.30;99.90;;;-1.61;100.00;101144.22;5026931;28;20167;-79
2022/12/04 05:40:04;;;;;;;80.82;31.45;;;0.30;99.90;;;-1.56;100.00;101161.75;5023942;28;20141;-78
2022/12/04 05:42:30;;;;;;;87.25;30.60;;;0.30;99.90;;;-1.57;100.00;101154.72;5023002;28;20119;-79
2022/12/04 05:44:56;;;;;;;71.57;29.00;;;0.30;99.90;;;-1.51;100.00;101148.84;5027197;28;20045;-77
2022/12/04 05:47:22;;;;;;;75.90;30.58;;;0.30;99.90;;;-1.57;100.00;101139.50;5026920;28;20048;-78
2022/12/04 05:49:47;;;;;;;75.13;29.92;;;0.40;99.90;;;-1.52;100.00;101141.78;5029426;28;20502;-77
2022/12/04 05:52:13;;;;;;;79.07;29.92;;;0.30;99.90;;;-1.51;100.00;101149.69;5025898;28;20159;-77
2022/12/04 05:54:39;;;;;;;74.63;29.58;;;0.30;99.90;;;-1.55;100.00;101142.88;5021677;28;20029;-78
2022/12/04 05:57:06;;;;;;;71.00;28.80;;;0.30;99.90;;;-1.50;100.00;101147.88;5030225;28;20135;-79
2022/12/04 05:59:32;;;;;;;80.00;30.40;;;0.30;99.90;;;-1.54;100.00;101149.94;5027245;28;20132;-77
2022/12/04 06:01:58;;;;;;;77.07;29.23;;;0.30;99.90;;;-1.51;100.00;101154.19;5029381;28;20123;-79
2022/12/04 06:04:24;;;;;;;72.60;29.70;;;0.30;99.90;;;-1.55;100.00;101148.25;5041705;28;20415;-78
2022/12/04 06:06:50;;;;;;;76.93;29.65;;;0.30;99.90;;;-1.50;100.00;101155.91;5029677;28;20033;-76
2022/12/04 06:09:15;;;;;;;79.63;29.80;;;0.30;99.90;;;-1.51;100.00;101155.03;5012064;28;20224;-77
2022/12/04 06:11:43;;;;;;;74.80;29.10;;;0.40;99.90;;;-1.54;100.00;101144.59;5024495;28;20818;-77
2022/12/04 06:14:13;;;;;;;74.15;28.90;;;0.30;99.90;;;-1.47;100.00;101161.00;5027689;28;20041;-78
2022/12/04 06:16:43;;;;;;;76.25;30.15;;;0.40;99.90;;;-1.45;100.00;101159.03;5025487;28;20106;-77
2022/12/04 06:19:17;;;;;;;82.13;30.48;;;0.40;99.90;;;-1.44;100.00;101160.75;5028925;28;20110;-79
2022/12/04 06:21:47;;;;;;;72.88;29.48;;;0.40;99.90;;;-1.46;100.00;101162.69;5027365;28;20029;-78
2022/12/04 06:24:21;;;;;;;69.25;28.88;;;0.40;99.90;;;-1.45;100.00;101165.25;5025889;28;20589;-78
2022/12/04 06:26:48;;;;;;;77.50;29.30;;;0.40;99.90;;;-1.44;100.00;101163.41;5027007;28;20038;-78
2022/12/04 06:29:15;;;;;;;69.00;29.60;;;0.40;99.90;;;-1.45;100.00;101164.41;5027946;28;20025;-78
2022/12/04 06:31:42;;;;;;;71.03;29.42;;;0.40;99.90;;;-1.44;100.00;101155.41;5028666;28;20029;-78
2022/12/04 06:34:09;;;;;;;69.60;29.67;;;0.40;99.90;;;-1.41;100.00;101159.66;5027870;28;20087;-78
2022/12/04 06:36:35;;;;;;;69.15;28.08;;;0.40;99.90;;;-1.42;100.00;101164.16;5032275;28;20030;-75
2022/12/04 06:39:01;;;;;;;70.25;28.50;;;0.40;99.90;;;-1.38;100.00;101157.56;5029397;28;20399;-80
2022/12/04 06:41:28;;;;;;;71.10;30.45;;;0.40;99.90;;;-1.41;100.00;101156.97;5028877;28;20036;-76
2022/12/04 06:43:55;;;;;;;70.18;28.48;;;0.40;99.90;;;-1.37;100.00;101161.09;5026588;28;20029;-80
2022/12/04 06:46:28;;;;;;;67.07;28.40;;;0.50;99.90;;;-1.35;100.00;101165.34;5028755;28;20087;-82
2022/12/04 06:48:56;;;;;;;69.82;28.63;;;0.40;99.90;;;-1.31;100.00;101160.59;5021125;28;20087;-81
2022/12/04 06:51:27;;;;;;;74.65;29.27;;;0.50;99.90;;;-1.34;100.00;101167.03;5032346;28;20029;-82
2022/12/04 06:53:53;;;;;;;69.30;27.98;;;0.50;99.90;;;-1.35;100.00;101167.19;5023789;28;20030;-82
2022/12/04 06:56:24;;;;;;;68.65;28.48;;;0.50;99.90;;;-1.35;100.00;101172.53;5022869;28;20037;-80
2022/12/04 06:58:57;;;;;;;66.70;28.10;;;0.50;99.90;;;-1.37;100.00;101166.47;5028103;28;20029;-80
2022/12/04 07:01:26;;;;;;;72.57;30.40;;;0.50;99.90;;;-1.33;100.00;101170.56;5028380;28;20122;-80
2022/12/04 07:03:53;;;;;;;66.70;29.40;;;0.50;99.90;;;-1.33;100.00;101178.59;5028338;28;20109;-79
2022/12/04 07:06:30;;;;;;;73.60;27.80;;;0.50;99.90;;;-1.34;100.00;101179.59;5027193;28;20084;-80
2022/12/04 07:09:02;;;;;;;69.75;28.38;;;0.50;99.90;;;-1.33;100.00;101175.94;5021234;28;20034;-79
2022/12/04 07:11:29;;;;;;;72.13;28.40;;;0.50;99.90;;;-1.27;100.00;101177.25;5027695;28;20072;-82
2022/12/04 07:13:55;;;;;;;72.95;29.30;;;0.50;99.90;;;-1.29;100.00;101181.91;5040398;28;20164;-84
2022/12/04 07:16:24;;;;;;;65.18;27.45;;;0.60;99.90;;;-1.28;100.00;101189.78;5028565;28;20036;-83
2022/12/04 07:18:52;;;;;;;67.35;29.38;;;0.50;99.90;;;-1.29;100.00;101187.25;5027501;28;20144;-81
2022/12/04 07:21:21;;;;;;;63.58;27.27;;;0.50;99.90;;;-1.28;100.00;101180.91;5027149;28;20037;-79
2022/12/04 07:23:53;;;;;;;62.22;26.55;;;0.50;99.90;;;-1.31;100.00;101182.00;5026677;28;20499;-81
2022/12/04 07:26:20;;;;;;;67.30;26.98;;;0.50;99.90;;;-1.36;100.00;101177.03;5021266;28;20038;-78
2022/12/04 07:28:46;;;;;;;66.65;27.17;;;0.50;99.90;;;-1.35;100.00;101172.53;5025848;28;20028;-79
2022/12/04 07:31:16;;;;;;;72.45;27.08;;;0.50;99.90;;;-1.33;100.00;101183.97;5027124;28;20029;-79
2022/12/04 07:33:43;;;;;;;68.03;28.23;;;0.50;99.90;;;-1.35;100.00;101180.56;5027764;28;20159;-79
2022/12/04 07:36:16;;;;;;;66.25;27.60;;;0.50;99.90;;;-1.43;100.00;101173.16;5027698;28;20041;-80
2022/12/04 07:38:42;;;;;;;63.92;26.30;;;0.50;99.90;;;-1.39;100.00;101179.94;5024255;28;20581;-80
2022/12/04 07:41:11;;;;;;;62.08;26.73;;;0.50;99.90;;;-1.42;100.00;101172.19;5019054;28;20112;-76
2022/12/04 07:43:38;;;;;;;69.82;29.35;;;0.40;99.90;;;-1.42;100.00;101172.19;5026593;28;20033;-78
2022/12/04 07:46:20;;;;;;;62.40;25.48;;;0.40;99.90;;;-1.37;100.00;101172.66;5027675;28;20037;-77
2022/12/04 07:48:46;;;;;;;67.93;26.80;;;0.50;99.90;;;-1.38;100.00;101175.47;5026173;28;20013;-76
2022/12/04 07:51:19;;;;;;;68.05;27.50;;;0.50;99.90;;;-1.38;100.00;101167.44;5027989;28;20029;-77
2022/12/04 07:53:46;;;;;;;63.78;26.48;;;0.40;99.90;;;-1.40;100.00;101174.75;5026367;28;20369;-77
2022/12/04 07:56:13;;;;;;;70.40;28.38;;;0.50;99.90;;;-1.39;100.00;101173.75;5026912;28;20037;-76
2022/12/04 07:58:40;;;;;;;68.28;27.67;;;0.50;99.90;;;-1.37;100.00;101171.81;5022846;28;20374;-76
2022/12/04 08:01:19;;;;;;;63.03;27.05;;;0.50;99.90;;;-1.38;100.00;101188.84;5025740;28;20165;-76
2022/12/04 08:03:48;;;;;;;66.65;27.35;;;0.50;99.90;;;-1.36;100.00;101179.69;5023241;28;20041;-77
2022/12/04 08:06:17;;;;;;;63.83;27.17;;;0.50;99.90;;;-1.39;100.00;101174.59;5024975;28;20033;-77
2022/12/04 08:08:44;;;;;;;65.95;26.23;;;0.40;99.90;;;-1.35;100.00;101176.03;5018610;28;20469;-79
2022/12/04 08:11:15;;;;;;;65.97;26.85;;;0.50;99.90;;;-1.33;100.00;101173.25;5022642;28;20026;-76
2022/12/04 08:13:41;;;;;;;67.05;28.13;;;0.50;99.90;;;-1.32;100.00;101177.63;5021316;28;20345;-75
2022/12/04 08:16:09;;;;;;;66.43;27.20;;;0.50;99.90;;;-1.34;100.00;101172.38;5026409;28;20045;-77
2022/12/04 08:18:35;;;;;;;67.88;28.23;;;0.50;99.90;;;-1.35;100.00;101170.69;5025894;28;20029;-76
2022/12/04 08:21:14;;;;;;;69.28;28.52;;;0.50;99.90;;;-1.31;100.00;101177.53;5024404;28;20047;-75
2022/12/04 08:23:42;;;;;;;66.22;27.02;;;0.50;99.90;;;-1.31;100.00;101177.53;5019896;28;20415;-76
2022/12/04 08:26:09;;;;;;;74.43;30.17;;;0.50;99.90;;;-1.27;100.00;101182.63;5019402;28;20037;-76
2022/12/04 08:28:36;;;;;;;68.47;27.48;;;0.60;99.90;;;-1.31;100.00;101173.97;5013837;28;20116;-76
2022/12/04 08:31:11;;;;;;;70.60;27.50;;;0.60;99.90;;;-1.29;100.00;101179.22;5020768;28;20044;-76
2022/12/04 08:33:37;;;;;;;68.03;27.88;;;0.50;99.90;;;-1.24;100.00;101177.84;5018598;28;20025;-76
2022/12/04 08:36:09;;;;;;;64.68;27.27;;;0.60;99.90;;;-1.26;100.00;101185.16;5019765;28;20064;-76
2022/12/04 08:38:35;;;;;;;68.95;28.77;;;0.60;99.90;;;-1.24;100.00;101187.72;5020137;28;20053;-76
2022/12/04 08:41:04;;;;;;;68.90;28.02;;;0.60;99.90;;;-1.27;100.00;101177.25;5019821;28;20036;-75
2022/12/04 08:43:30;;;;;;;70.75;29.25;;;0.60;99.90;;;-1.23;100.00;101186.75;5014638;28;20073;-74
2022/12/04 08:46:03;;;;;;;67.28;28.20;;;0.60;99.90;;;-1.20;100.00;101178.44;5029706;28;20065;-75
2022/12/04 08:48:30;;;;;;;69.55;29.88;;;0.60;99.90;;;-1.20;100.00;101175.78;5019128;28;20543;-76
2022/12/04 08:50:56;;;;;;;70.40;29.00;;;0.60;99.90;;;-1.19;100.00;101181.00;5018401;28;20037;-76
2022/12/04 08:53:23;;;;;;;71.63;30.58;;;0.70;99.90;;;-1.17;100.00;101172.84;5016858;28;20045;-76
2022/12/04 08:55:50;;;;;;;73.47;30.40;;;0.70;99.90;;;-1.17;100.00;101175.50;5017956;28;20045;-76
2022/12/04 08:58:17;;;;;;;76.25;27.35;;;0.70;99.90;;;-1.17;100.00;101162.13;5018418;28;20120;-75
2022/12/04 09:00:43;;;;;;;76.70;30.23;;;0.70;99.90;;;-1.24;100.00;101158.25;5015505;28;20570;-74
2022/12/04 09:03:15;;;;;;;70.88;29.75;;;0.70;99.90;;;-1.16;100.00;101178.09;5017054;28;20033;-75
2022/12/04 09:05:44;;;;;;;76.50;30.17;;;0.70;99.90;;;-1.19;100.00;101169.44;5020158;28;20407;-74
2022/12/04 09:08:15;;;;;;;80.80;30.00;;;0.70;99.90;;;-1.16;100.00;101170.03;5023932;28;20026;-74
2022/12/04 09:10:42;;;;;;;76.60;30.25;;;0.70;99.90;;;-1.15;100.00;101170.88;5024354;28;20029;-75
2022/12/04 09:13:08;;;;;;;76.70;31.13;;;0.70;99.90;;;-1.11;100.00;101175.00;5016388;28;20033;-74
2022/12/04 09:15:39;;;;;;;73.40;29.83;;;0.70;99.90;;;-1.10;100.00;101184.72;5024600;28;20029;-75
2022/12/04 09:18:06;;;;;;;70.88;29.77;;;0.80;99.90;;;-1.11;100.00;101183.03;5024659;28;20492;-74
2022/12/04 09:20:32;;;;;;;74.25;30.08;;;0.80;99.90;;;-1.07;100.00;101189.84;5024405;28;20029;-76
2022/12/04 09:22:57;;;;;;;74.88;30.42;;;0.80;99.90;;;-1.06;100.00;101193.38;5027947;28;20463;-75
2022/12/04 09:25:23;;;;;;;74.63;29.08;;;0.80;99.90;;;-1.07;100.00;101191.69;5023323;28;20037;-77
2022/12/04 09:27:49;;;;;;;70.45;29.70;;;0.80;99.90;;;-1.08;100.00;101180.09;5025017;28;20038;-77
2022/12/04 09:30:14;;;;;;;80.65;33.05;;;0.80;99.90;;;-1.05;100.00;101192.41;5022791;28;20034;-78
2022/12/04 09:32:40;;;;;;;72.40;29.27;;;0.80;99.90;;;-1.02;100.00;101190.31;5025511;28;20460;-77
2022/12/04 09:35:08;;;;;;;78.40;29.98;;;0.80;99.90;;;-0.99;100.00;101194.56;5022105;28;20025;-78
2022/12/04 09:37:35;;;;;;;;;;;0.80;99.90;;;-1.02;100.00;101190.31;5019373;28;20544;-77
2022/12/04 09:40:06;;;;;;;73.50;30.00;;;0.80;99.90;;;-1.04;100.00;101183.38;5024737;28;19913;-78
2022/12/04 09:42:54;;;;;;;72.50;29.25;;;0.80;99.90;;;-0.98;100.00;101182.03;5029930;28;20037;-77
2022/12/04 09:45:24;;;;;;;75.57;29.92;;;0.80;99.90;;;-1.07;100.00;101167.56;5023670;28;20125;-77
2022/12/04 09:47:56;;;;;;;71.75;29.60;;;0.90;99.90;;;-0.95;100.00;101181.78;5022817;28;20073;-77
2022/12/04 09:50:43;;;;;;;74.82;30.20;;;0.90;99.90;;;-0.93;100.00;101180.69;5021449;28;20030;-79
2022/12/04 09:53:17;;;;;;;75.68;29.55;;;0.90;99.90;;;-0.87;100.00;101182.84;5029397;28;20044;-78
2022/12/04 09:56:05;;;;;;;71.75;29.50;;;1.00;99.90;;;-0.84;100.00;101180.88;5028834;28;20037;-78
2022/12/04 09:58:51;;;;;;;71.65;29.38;;;1.00;99.90;;;-0.81;100.00;101173.41;5026206;28;20037;-78
2022/12/04 10:01:50;;;;;;;70.05;30.30;;;1.00;99.90;;;-0.79;100.00;101176.84;5028281;28;20056;-77
2022/12/04 10:04:17;;;;;;;76.00;30.23;;;1.00;99.90;;;-0.71;100.00;101178.00;5029823;28;20523;-77
2022/12/04 10:06:47;;;;;;;75.00;31.17;;;1.10;99.90;;;-0.71;100.00;101175.34;5027913;28;20249;-78
2022/12/04 10:09:23;;;;;;;71.18;30.13;;;1.10;99.90;;;-0.71;100.00;101178.84;5028889;28;20051;-77
2022/12/04 10:12:09;;;;;;;72.80;30.83;;;1.10;99.90;;;-0.76;100.00;101171.22;5023567;28;20088;-77
2022/12/04 10:14:55;;;;;;;71.25;29.27;;;1.10;99.90;;;-0.74;100.00;101173.75;5028598;28;20013;-77
2022/12/04 10:17:48;;;;;;;74.20;30.15;;;1.10;99.90;;;-0.80;100.00;101174.28;5027754;28;20115;-78
2022/12/04 10:20:37;;;;;;;72.70;29.90;;;1.10;99.90;;;-0.77;100.00;101174.88;5025590;28;20431;-77
2022/12/04 10:24:03;;;;;;;80.57;31.27;;;1.10;99.90;;;-0.76;100.00;101165.00;5027168;28;20041;-77
2022/12/04 10:26:38;;;;;;;70.32;29.20;;;1.10;99.90;;;-0.77;100.00;101164.16;5028107;28;20503;-78
2022/12/04 10:29:15;;;;;;;85.13;31.65;;;1.10;99.90;;;-0.82;100.00;101155.63;5028151;28;20098;-77
2022/12/04 10:31:45;;;;;;;70.00;28.13;;;1.10;99.90;;;-0.78;100.00;101154.41;5023201;28;20099;-77